Terminal Aerodrome Forecast
Issued by NWS Mobile, AL

Home | Current Version | Previous Version | Text Only | Print | Product List | Glossary On
Versions: 1 2 3 4 5 6 7 8 9 10 11 12 13 14 15 16
000
FTUS44 KMOB 190554 AAA
TAFPNS
TAF AMD
KPNS 190554Z 1906/2006 35014G25KT P6SM SCT020 BKN030 OVC050
     FM191400 35016G26KT P6SM SKC=

USA.gov is the U.S. government's official web portal to all federal, state and local government web resources and services.